Time;durP1;ratioP1;P1;durP2;ratioP2;P2;SDS_P1;SDS_P2;PMS_P1;PMS_P2;Temp;Humidity;BMP_temperature;BMP_pressure;BME280_temperature;BME280_humidity;BME280_pressure;Samples;Min_cycle;Max_cycle;Signal;HPM_P1;HPM_P2
2022/01/22 00:00:24;;;;;;;;;11.25;9.00;;;;;5.71;100.00;103342.44;5097565;27;45324;-82
2022/01/22 00:02:50;;;;;;;;;12.50;9.25;;;;;5.72;100.00;103340.69;5098211;27;44688;-82
2022/01/22 00:05:18;;;;;;;;;10.00;7.50;;;;;5.71;100.00;103352.13;5098370;27;44962;-83
2022/01/22 00:07:44;;;;;;;;;13.75;9.00;;;;;5.64;100.00;103346.84;5102043;27;45133;-82
2022/01/22 00:10:14;;;;;;;;;9.75;8.00;;;;;5.65;100.00;103340.69;5118765;27;45373;-82
2022/01/22 00:15:22;;;;;;;;;15.00;11.50;;;;;5.71;100.00;103334.53;5118698;27;44788;-81
2022/01/22 00:17:48;;;;;;;;;14.25;12.00;;;;;5.71;100.00;103331.91;5119094;27;45487;-83
2022/01/22 00:20:16;;;;;;;;;11.00;9.50;;;;;5.62;100.00;103330.19;5117775;27;45436;-82
2022/01/22 00:22:44;;;;;;;;;12.75;10.75;;;;;5.63;100.00;103336.31;5117655;27;44824;-83
2022/01/22 00:25:11;;;;;;;;;12.25;10.00;;;;;5.64;100.00;103331.03;5118155;27;44788;-82
2022/01/22 00:27:43;;;;;;;;;7.50;4.25;;;;;5.58;100.00;103331.06;5120770;27;45265;-81
2022/01/22 00:30:14;;;;;;;;;11.33;10.33;;;;;5.58;100.00;103332.84;5105357;27;45185;-82
2022/01/22 00:32:39;;;;;;;;;9.75;9.00;;;;;5.57;100.00;103328.44;5118209;27;45540;-83
2022/01/22 00:35:06;;;;;;;;;4.75;2.75;;;;;5.54;100.00;103329.31;5117988;27;45611;-82
2022/01/22 00:37:33;;;;;;;;;8.25;5.75;;;;;5.55;100.00;103324.91;5117411;27;45344;-83
2022/01/22 00:39:59;;;;;;;;;12.00;10.67;;;;;5.58;100.00;103319.66;5098882;27;45403;-82
2022/01/22 00:42:24;;;;;;;;;8.00;8.00;;;;;5.56;100.00;103330.22;5117491;27;44794;-82
2022/01/22 00:44:51;;;;;;;;;6.75;6.75;;;;;5.59;100.00;103324.03;5104989;27;45297;-82
2022/01/22 00:47:17;;;;;;;;;10.33;8.00;;;;;5.66;100.00;103323.13;5116892;27;45353;-82
2022/01/22 00:49:43;;;;;;;;;11.50;10.50;;;;;5.62;100.00;103317.00;5117146;27;44881;-82
2022/01/22 00:52:08;;;;;;;;;7.75;7.75;;;;;5.60;100.00;103316.09;5117763;27;44716;-83
2022/01/22 00:54:34;;;;;;;;;7.00;7.00;;;;;5.61;100.00;103320.53;5098875;27;45450;-81
2022/01/22 00:56:59;;;;;;;;;19.00;11.50;;;;;5.66;100.00;103320.50;5098990;27;45327;-82
2022/01/22 00:59:25;;;;;;;;;4.25;4.25;;;;;5.69;100.00;103328.38;5099994;27;45170;-82
2022/01/22 01:01:50;;;;;;;;;15.50;10.25;;;;;5.70;100.00;103324.84;5119801;27;45450;-82
2022/01/22 01:04:16;;;;;;;;;9.75;8.25;;;;;5.76;100.00;103323.97;5124644;27;45429;-81
2022/01/22 01:06:42;;;;;;;;;2.00;2.00;;;;;5.73;100.00;103324.84;5103042;27;45254;-82
2022/01/22 01:09:10;;;;;;;;;8.75;8.75;;;;;5.70;100.00;103324.84;5117020;27;45356;-82
2022/01/22 01:11:42;;;;;;;;;8.25;8.25;;;;;5.67;100.00;103315.22;5099355;27;44768;-82
2022/01/22 01:14:11;;;;;;;;;11.00;11.00;;;;;5.68;100.00;103316.94;5096599;27;45046;-82
2022/01/22 01:33:17;;;;;;;;;14.50;12.00;;;;;5.80;100.00;103299.28;5034012;28;44928;-82
2022/01/22 01:35:43;;;;;;;;;14.00;13.25;;;;;5.78;100.00;103309.00;5033857;28;44865;-82
2022/01/22 01:38:08;;;;;;;;;10.00;10.00;;;;;5.76;100.00;103311.66;5035287;28;45608;-81
2022/01/22 01:40:38;;;;;;;;;10.50;9.25;;;;;5.73;100.00;103306.38;5044593;28;44750;-83
2022/01/22 01:45:29;;;;;;;;;7.00;7.00;;;;;5.69;100.00;103307.28;5033833;28;44884;-82
2022/01/22 01:48:02;;;;;;;;;8.00;8.00;;;;;5.74;100.00;103309.88;5032783;28;45431;-81
2022/01/22 01:50:30;;;;;;;;;7.75;7.75;;;;;5.72;100.00;103309.91;5032623;28;44829;-83
2022/01/22 01:58:16;;;;;;;;;9.75;9.75;;;;;5.74;100.00;103310.75;5122135;27;45354;-82
2022/01/22 02:00:42;;;;;;;;;8.75;8.75;;;;;5.74;100.00;103300.22;5122031;27;45323;-82
2022/01/22 02:03:09;;;;;;;;;12.50;11.00;;;;;5.78;100.00;103296.69;5122516;27;45306;-82
2022/01/22 02:05:36;;;;;;;;;11.50;10.50;;;;;5.81;100.00;103306.34;5103651;27;44804;-81
2022/01/22 02:08:02;;;;;;;;;10.50;8.75;;;;;5.80;100.00;103308.13;5121155;27;45225;-81
2022/01/22 02:10:31;;;;;;;;;10.00;9.50;;;;;5.78;100.00;103311.63;5101520;27;45399;-82
2022/01/22 02:13:41;;;;;;;;;8.00;8.00;;;;;5.84;100.00;103308.94;5118928;27;45234;-82
2022/01/22 02:23:58;;;;;;;;;9.75;8.50;;;;;5.89;100.00;103301.88;5120006;27;45447;-83
2022/01/22 02:26:23;;;;;;;;;13.25;9.75;;;;;5.87;100.00;103304.53;5119947;27;44854;-82
2022/01/22 02:28:51;;;;;;;;;11.25;8.25;;;;;5.82;100.00;103298.41;5119301;27;45470;-81
2022/01/22 02:31:27;;;;;;;;;15.25;11.75;;;;;5.88;100.00;103298.38;5119807;27;45379;-81
2022/01/22 02:36:27;;;;;;;;;10.50;10.50;;;;;5.88;100.00;103302.78;5119892;27;44886;-80
2022/01/22 02:41:20;;;;;;;;;13.75;11.75;;;;;5.85;100.00;103289.59;5119491;27;45378;-81
2022/01/22 02:43:47;;;;;;;;;10.00;8.75;;;;;5.81;100.00;103293.16;5119165;27;45248;-81
2022/01/22 02:46:16;;;;;;;;;11.50;10.25;;;;;5.82;100.00;103292.28;5100588;27;44854;-82
2022/01/22 02:48:42;;;;;;;;;9.75;8.00;;;;;5.86;100.00;103292.25;5118842;27;45313;-81
2022/01/22 02:51:07;;;;;;;;;16.50;12.75;;;;;5.82;100.00;103285.22;5119255;27;45260;-81
2022/01/22 02:53:32;;;;;;;;;11.25;10.25;;;;;5.81;100.00;103290.53;5120154;27;45021;-82
2022/01/22 02:56:01;;;;;;;;;11.50;6.75;;;;;5.80;100.00;103287.00;5122260;27;45283;-82
2022/01/22 02:58:27;;;;;;;;;11.00;10.25;;;;;5.79;100.00;103279.09;5125842;27;45417;-81
2022/01/22 03:00:52;;;;;;;;;11.25;9.75;;;;;5.80;100.00;103287.00;5119794;27;44981;-81
2022/01/22 03:03:18;;;;;;;;;9.25;7.50;;;;;5.78;100.00;103291.41;5119366;27;45144;-81
2022/01/22 03:05:43;;;;;;;;;12.25;10.00;;;;;5.79;100.00;103287.00;5119120;27;45638;-81
2022/01/22 03:08:10;;;;;;;;;11.25;10.25;;;;;5.78;100.00;103283.50;5110167;27;45383;-81
2022/01/22 03:10:37;;;;;;;;;12.50;10.00;;;;;5.75;100.00;103280.84;5098815;27;45511;-81
2022/01/22 03:16:10;;;;;;;;;8.25;6.00;;;;;5.65;100.00;103273.88;5092657;27;44828;-82
2022/01/22 03:21:10;;;;;;;;;11.75;10.00;;;;;5.58;100.00;103267.78;5098076;27;44900;-82
2022/01/22 03:29:08;;;;;;;;;13.25;13.00;;;;;5.72;100.00;103280.03;5097910;27;45385;-82
2022/01/22 03:31:35;;;;;;;;;15.00;13.25;;;;;5.66;100.00;103284.44;5098091;27;45386;-81
2022/01/22 03:34:00;;;;;;;;;10.50;10.50;;;;;5.61;100.00;103290.63;5098845;27;44851;-81
2022/01/22 03:36:29;;;;;;;;;11.50;11.50;;;;;5.61;100.00;103288.00;5085050;27;44904;-80
2022/01/22 03:38:55;;;;;;;;;11.00;11.00;;;;;5.61;100.00;103280.97;5103739;27;45298;-81
2022/01/22 03:41:23;;;;;;;;;14.50;11.25;;;;;5.63;100.00;103284.47;5096959;27;45325;-81
2022/01/22 03:43:49;;;;;;;;;14.50;14.50;;;;;5.61;100.00;103280.97;5096690;27;45264;-81
2022/01/22 03:46:14;;;;;;;;;11.50;10.75;;;;;5.62;100.00;103297.66;5097019;27;44828;-81
2022/01/22 03:48:40;;;;;;;;;14.50;11.25;;;;;5.62;100.00;103292.38;5096592;27;45201;-81
2022/01/22 03:51:05;;;;;;;;;15.25;14.75;;;;;5.66;100.00;103300.28;5097154;27;45525;-82
2022/01/22 03:53:31;;;;;;;;;16.50;11.00;;;;;5.66;100.00;103296.75;5098688;27;45319;-83
2022/01/22 03:56:04;;;;;;;;;15.50;12.50;;;;;5.69;100.00;103291.44;5103432;27;44950;-82
2022/01/22 03:58:36;;;;;;;;;14.25;13.25;;;;;5.70;100.00;103287.94;5102348;27;45352;-82
2022/01/22 04:03:41;;;;;;;;;18.50;15.25;;;;;5.66;100.00;103292.38;5097416;27;44713;-83
2022/01/22 04:08:47;;;;;;;;;17.50;14.50;;;;;5.57;100.00;103284.50;5109724;27;45179;-81
2022/01/22 04:11:15;;;;;;;;;11.75;10.25;;;;;5.58;100.00;103288.00;5117725;27;44783;-81
2022/01/22 04:13:42;;;;;;;;;18.25;15.50;;;;;5.57;100.00;103281.00;5119164;27;44798;-82
2022/01/22 04:16:08;;;;;;;;;11.00;9.50;;;;;5.58;100.00;103277.47;5119310;27;45336;-81
2022/01/22 04:27:07;;;;;;;;;16.75;14.00;;;;;5.60;100.00;103273.91;5117612;27;45278;-81
2022/01/22 04:29:33;;;;;;;;;19.75;18.00;;;;;5.58;100.00;103274.81;5117576;27;45145;-80
2022/01/22 04:31:58;;;;;;;;;20.50;12.75;;;;;5.61;100.00;103274.81;5117436;27;45304;-81
2022/01/22 04:34:23;;;;;;;;;22.00;17.00;;;;;5.61;100.00;103275.69;5117384;27;45433;-81
2022/01/22 04:36:49;;;;;;;;;12.25;12.25;;;;;5.59;100.00;103271.28;5117485;27;45253;-81
2022/01/22 04:39:14;;;;;;;;;14.00;10.00;;;;;5.57;100.00;103276.59;5098453;27;45432;-81
2022/01/22 04:41:40;;;;;;;;;20.75;16.75;;;;;5.50;100.00;103279.25;5117738;27;44824;-81
2022/01/22 04:44:08;;;;;;;;;14.75;14.75;;;;;5.40;100.00;103276.66;5117351;27;45213;-81
2022/01/22 04:49:18;;;;;;;;;17.33;16.00;;;;;5.46;100.00;103277.50;5120059;27;45523;-81
2022/01/22 04:57:11;;;;;;;;;29.33;25.33;;;;;5.37;100.00;103281.97;5121108;27;45389;-82
2022/01/22 04:59:38;;;;;;;;;26.33;22.33;;;;;5.33;100.00;103298.66;5121234;27;45079;-81
2022/01/22 05:02:03;;;;;;;;;19.33;18.00;;;;;5.33;100.00;103295.16;5120504;27;45317;-81
2022/01/22 05:04:29;;;;;;;;;24.67;22.00;;;;;5.34;100.00;103281.09;5120396;27;45349;-81
2022/01/22 05:06:54;;;;;;;;;30.67;25.00;;;;;5.36;100.00;103280.19;5099627;27;44874;-81
2022/01/22 05:09:19;;;;;;;;;33.00;24.33;;;;;5.30;100.00;103297.78;5117482;27;45260;-81
2022/01/22 05:11:45;;;;;;;;;27.67;20.00;;;;;5.30;100.00;103292.53;5098578;27;44671;-81
2022/01/22 05:14:10;;;;;;;;;24.00;21.67;;;;;5.31;100.00;103283.72;5115965;27;45348;-82
2022/01/22 05:16:36;;;;;;;;;25.67;23.33;;;;;5.38;100.00;103290.75;5116962;27;45389;-79
2022/01/22 05:19:09;;;;;;;;;26.00;22.33;;;;;5.33;100.00;103287.25;5098095;27;46209;-82
2022/01/22 05:21:37;;;;;;;;;41.00;26.00;;;;;5.30;100.00;103287.25;5115929;27;44743;-80
2022/01/22 05:24:07;;;;;;;;;28.00;21.00;;;;;5.34;100.00;103281.09;5098392;27;44823;-81
2022/01/22 05:37:10;;;;;;;;;26.33;24.33;;;;;5.18;100.00;103284.66;5121529;27;45361;-81
2022/01/22 05:39:36;;;;;;;;;28.33;27.67;;;;;5.23;100.00;103296.06;5105000;27;45556;-81
2022/01/22 05:42:05;;;;;;;;;35.67;33.67;;;;;5.27;100.00;103297.78;5122106;27;45362;-81
2022/01/22 05:44:31;;;;;;;;;38.33;33.00;;;;;5.28;100.00;103297.81;5120326;27;45370;-82
2022/01/22 05:47:02;;;;;;;;;30.00;28.33;;;;;5.28;100.00;103300.44;5120586;27;44763;-82
2022/01/22 05:49:30;;;;;;;;;24.00;22.00;;;;;5.30;100.00;103290.75;5119865;27;45246;-81
2022/01/22 05:51:57;;;;;;;;;22.67;20.67;;;;;5.31;100.00;103300.41;5120027;27;45430;-81
2022/01/22 05:59:42;;;;;;;;;31.00;22.67;;;;;5.37;100.00;103308.31;5119912;27;45476;-81
2022/01/22 06:02:10;;;;;;;;;29.33;26.00;;;;;5.35;100.00;103315.34;5119814;27;44812;-82
2022/01/22 06:04:36;;;;;;;;;21.33;17.33;;;;;5.36;100.00;103316.22;5118972;27;44614;-80
2022/01/22 06:07:04;;;;;;;;;30.33;28.00;;;;;5.37;100.00;103307.44;5119922;27;44916;-81
2022/01/22 06:09:31;;;;;;;;;34.00;31.33;;;;;5.39;100.00;103310.94;5119145;27;46264;-81
2022/01/22 06:12:29;;;;;;;;;35.67;29.00;;;;;5.39;100.00;103313.56;5120310;27;45515;-81
2022/01/22 06:14:42;;;;;;;;;28.67;25.00;;;;;5.45;100.00;103317.94;5126569;27;45299;-81
2022/01/22 06:17:08;;;;;;;;;25.33;23.33;;;;;5.43;100.00;103309.16;5125515;27;44919;-81
2022/01/22 06:19:33;;;;;;;;;40.33;32.00;;;;;5.45;100.00;103310.91;5107437;27;45114;-81
2022/01/22 06:21:59;;;;;;;;;31.33;29.00;;;;;5.47;100.00;103326.75;5109318;27;44851;-80
2022/01/22 06:24:24;;;;;;;;;28.00;25.00;;;;;5.47;100.00;103317.06;5102697;27;45531;-80
2022/01/22 06:26:51;;;;;;;;;32.67;30.33;;;;;5.49;100.00;103314.41;5119442;27;45426;-80
2022/01/22 06:29:16;;;;;;;;;28.67;27.00;;;;;5.48;100.00;103313.53;5100536;27;46897;-81
2022/01/22 06:31:42;;;;;;;;;39.67;28.67;;;;;5.47;100.00;103314.44;5100576;27;45190;-82
2022/01/22 06:34:08;;;;;;;;;39.67;33.00;;;;;5.49;100.00;103310.00;5119692;27;44795;-83
2022/01/22 06:36:34;;;;;;;;;33.00;28.00;;;;;5.45;100.00;103310.91;5118096;27;44912;-82
2022/01/22 06:39:12;;;;;;;;;31.00;27.67;;;;;5.45;100.00;103302.13;5120443;27;45356;-82
2022/01/22 06:41:45;;;;;;;;;29.67;26.00;;;;;5.41;100.00;103309.16;5118277;27;45302;-81
2022/01/22 06:44:34;;;;;;;;;34.67;31.33;;;;;5.37;100.00;103307.44;5118323;27;45258;-82
2022/01/22 06:46:59;;;;;;;;;31.33;27.67;;;;;5.40;100.00;103308.28;5118991;27;44887;-81
2022/01/22 06:49:26;;;;;;;;;36.67;32.33;;;;;5.44;100.00;103310.91;5119233;27;45346;-81
2022/01/22 06:51:54;;;;;;;;;34.33;29.00;;;;;5.44;100.00;103306.53;5119684;27;45220;-82
2022/01/22 06:54:21;;;;;;;;;33.67;30.67;;;;;5.43;100.00;103322.34;5120326;27;45177;-82
2022/01/22 06:56:46;;;;;;;;;36.67;31.00;;;;;5.41;100.00;103320.59;5120480;27;44745;-82
2022/01/22 06:59:13;;;;;;;;;42.33;30.00;;;;;5.39;100.00;103321.47;5121171;27;45002;-82
2022/01/22 07:01:39;;;;;;;;;28.67;28.67;;;;;5.37;100.00;103326.78;5122447;27;45271;-82
2022/01/22 07:04:04;;;;;;;;;36.67;31.00;;;;;5.41;100.00;103330.25;5127816;27;44769;-82
2022/01/22 07:06:30;;;;;;;;;33.33;30.33;;;;;5.44;100.00;103322.34;5123503;27;44818;-82
2022/01/22 07:08:55;;;;;;;;;29.67;28.67;;;;;5.46;100.00;103324.97;5126530;27;44935;-81
2022/01/22 07:11:20;;;;;;;;;34.00;32.67;;;;;5.46;100.00;103333.75;5127226;27;44735;-82
2022/01/22 07:13:47;;;;;;;;;31.33;27.67;;;;;5.45;100.00;103321.44;5109220;27;44775;-81
2022/01/22 07:16:12;;;;;;;;;31.33;28.67;;;;;5.46;100.00;103330.22;5127224;27;44763;-82
2022/01/22 07:18:38;;;;;;;;;34.00;30.00;;;;;5.48;100.00;103328.47;5126941;27;45466;-83
2022/01/22 07:21:20;;;;;;;;;30.67;28.33;;;;;5.41;100.00;103324.97;5122094;27;45193;-82
2022/01/22 07:26:15;;;;;;;;;34.33;33.67;;;;;5.46;100.00;103325.81;5123863;27;44779;-83
2022/01/22 07:28:41;;;;;;;;;35.67;29.33;;;;;5.47;100.00;103324.09;5121886;27;46150;-83
2022/01/22 07:31:07;;;;;;;;;29.67;26.00;;;;;5.47;100.00;103321.47;5123235;27;45502;-83
2022/01/22 07:33:34;;;;;;;;;22.67;20.33;;;;;5.49;100.00;103333.75;5107051;27;44810;-82
2022/01/22 07:36:00;;;;;;;;;32.33;30.33;;;;;5.51;100.00;103325.81;5122994;27;45345;-84
2022/01/22 07:38:26;;;;;;;;;38.67;34.33;;;;;5.56;100.00;103338.13;5101227;27;45550;-83
2022/01/22 07:40:51;;;;;;;;;29.67;29.33;;;;;5.59;100.00;103337.22;5123462;27;45307;-82
2022/01/22 07:43:17;;;;;;;;;32.33;24.00;;;;;5.56;100.00;103339.84;5125314;27;44680;-83
2022/01/22 07:45:43;;;;;;;;;47.33;33.33;;;;;5.58;100.00;103338.09;5130039;27;45498;-83
2022/01/22 07:48:09;;;;;;;;;32.67;31.33;;;;;5.58;100.00;103330.19;5106438;27;45432;-82
2022/01/22 07:50:34;;;;;;;;;32.33;29.33;;;;;5.57;100.00;103334.59;5119248;27;45398;-86
2022/01/22 07:53:01;;;;;;;;;27.67;27.67;;;;;5.57;100.00;103346.91;5119931;27;45346;-84
2022/01/22 07:55:28;;;;;;;;;47.67;32.33;;;;;5.57;100.00;103349.53;5119603;27;44817;-85
2022/01/22 07:57:53;;;;;;;;;43.33;35.67;;;;;5.57;100.00;103341.63;5102485;27;45474;-85
2022/01/22 08:00:18;;;;;;;;;36.67;34.67;;;;;5.57;100.00;103350.41;5100722;27;45501;-85
2022/01/22 08:02:44;;;;;;;;;31.67;29.00;;;;;5.52;100.00;103346.91;5100447;27;44794;-86
2022/01/22 08:05:09;;;;;;;;;36.00;31.00;;;;;5.57;100.00;103352.19;5100478;27;45292;-86
2022/01/22 08:07:36;;;;;;;;;33.00;27.33;;;;;5.58;100.00;103349.53;5118635;27;45393;-85
2022/01/22 08:10:02;;;;;;;;;39.67;35.67;;;;;5.59;100.00;103353.91;5118708;27;44813;-86
2022/01/22 08:12:29;;;;;;;;;29.33;27.00;;;;;5.61;100.00;103351.28;5118059;27;44717;-85
2022/01/22 08:14:54;;;;;;;;;26.00;26.00;;;;;5.60;100.00;103357.41;5099289;27;44788;-84
2022/01/22 08:17:20;;;;;;;;;31.33;28.33;;;;;5.61;100.00;103367.97;5117695;27;45258;-85
2022/01/22 08:19:46;;;;;;;;;23.67;23.67;;;;;5.60;100.00;103360.94;5099094;27;44871;-83
2022/01/22 08:22:11;;;;;;;;;36.67;32.33;;;;;5.62;100.00;103360.94;5118980;27;44694;-83
2022/01/22 08:24:37;;;;;;;;;44.67;31.67;;;;;5.66;100.00;103363.56;5121492;27;44831;-83
2022/01/22 08:29:37;;;;;;;;;44.67;35.67;;;;;5.76;100.00;103364.41;5126785;27;45467;-82
2022/01/22 08:32:22;;;;;;;;;36.00;31.00;;;;;5.79;100.00;103364.38;5129687;27;44870;-84
2022/01/22 08:37:32;;;;;;;;;34.00;30.33;;;;;5.88;100.00;103369.59;5118025;27;45321;-83
2022/01/22 08:39:57;;;;;;;;;37.33;33.33;;;;;5.89;100.00;103370.47;5118208;27;45430;-84
2022/01/22 08:42:24;;;;;;;;;39.33;34.00;;;;;5.88;100.00;103366.09;5118106;27;45105;-84
2022/01/22 08:44:49;;;;;;;;;38.33;31.33;;;;;5.86;100.00;103368.75;5118141;27;44834;-84
2022/01/22 08:47:15;;;;;;;;;45.33;35.00;;;;;5.85;100.00;103372.28;5120149;27;45323;-86
2022/01/22 08:49:41;;;;;;;;;30.67;26.33;;;;;5.90;100.00;103380.16;5120718;27;44855;-84
2022/01/22 08:52:13;;;;;;;;;45.33;37.00;;;;;5.91;100.00;103379.28;5127200;27;44806;-88
2022/01/22 08:54:40;;;;;;;;;40.33;34.33;;;;;5.92;100.00;103386.34;5121293;27;44855;-83
2022/01/22 08:57:05;;;;;;;;;46.00;35.33;;;;;5.92;100.00;103378.41;5117332;27;45244;-84
2022/01/22 08:59:31;;;;;;;;;46.33;37.00;;;;;5.97;100.00;103383.69;5098218;27;45277;-83
2022/01/22 09:01:58;;;;;;;;;48.33;36.67;;;;;6.02;100.00;103389.81;5099123;27;44724;-82
2022/01/22 09:04:23;;;;;;;;;52.33;37.33;;;;;6.06;100.00;103397.69;5117382;27;44987;-83
2022/01/22 09:06:50;;;;;;;;;43.33;36.67;;;;;6.04;100.00;103399.44;5120410;27;45144;-83
2022/01/22 09:09:15;;;;;;;;;39.67;34.67;;;;;6.05;100.00;103395.06;5122485;27;45539;-84
2022/01/22 09:11:44;;;;;;;;;44.00;36.67;;;;;6.07;100.00;103393.28;5123868;27;45346;-84
2022/01/22 09:14:12;;;;;;;;;46.33;37.33;;;;;6.10;100.00;103398.56;5110080;27;44765;-84
2022/01/22 09:16:38;;;;;;;;;35.00;33.50;;;;;6.13;100.00;103399.41;5130480;27;44985;-83
2022/01/22 09:19:08;;;;;;;;;43.00;38.00;;;;;6.13;100.00;103387.97;5121550;27;44746;-84
2022/01/22 09:21:34;;;;;;;;;37.00;34.33;;;;;6.14;100.00;103390.63;5120703;27;44805;-84
2022/01/22 09:24:00;;;;;;;;;38.67;33.00;;;;;6.14;100.00;103405.56;5122491;27;44868;-84
2022/01/22 09:26:30;;;;;;;;;39.33;33.67;;;;;6.12;100.00;103399.41;5121493;27;45227;-83
2022/01/22 09:28:58;;;;;;;;;39.00;35.33;;;;;6.05;100.00;103409.16;5121223;27;44796;-84
2022/01/22 09:31:25;;;;;;;;;37.33;31.67;;;;;6.04;100.00;103410.00;5121554;27;44767;-86
2022/01/22 09:33:56;;;;;;;;;29.33;23.00;;;;;6.01;100.00;103417.09;5121219;27;44941;-85
2022/01/22 09:36:22;;;;;;;;;40.33;34.33;;;;;6.01;100.00;103407.41;5121482;27;45267;-87
2022/01/22 09:38:47;;;;;;;;;31.67;29.67;;;;;5.96;100.00;103424.16;5121452;27;45491;-86
2022/01/22 09:41:14;;;;;;;;;36.33;32.33;;;;;5.96;100.00;103421.50;5103504;27;44749;-85
2022/01/22 09:43:40;;;;;;;;;33.33;32.67;;;;;5.99;100.00;103424.97;5121389;27;45536;-84
2022/01/22 09:46:08;;;;;;;;;40.00;34.00;;;;;6.01;100.00;103425.88;5104367;27;46879;-86
2022/01/22 09:48:33;;;;;;;;;44.67;34.67;;;;;6.05;100.00;103432.03;5124208;27;45499;-84
2022/01/22 09:50:58;;;;;;;;;40.00;34.33;;;;;6.10;100.00;103422.31;5123871;27;44878;-87
2022/01/22 09:53:24;;;;;;;;;32.00;28.67;;;;;6.09;100.00;103418.81;5106955;27;44883;-86
2022/01/22 09:55:50;;;;;;;;;46.33;34.33;;;;;6.09;100.00;103418.81;5127322;27;45346;-86
2022/01/22 09:58:16;;;;;;;;;50.67;39.67;;;;;6.09;100.00;103421.44;5131099;27;44819;-86
2022/01/22 10:00:41;;;;;;;;;36.33;34.67;;;;;6.13;100.00;103424.91;5128075;27;44995;-85
2022/01/22 10:03:16;;;;;;;;;36.67;30.00;;;;;6.06;100.00;103426.72;5122586;27;44766;-84
2022/01/22 10:05:41;;;;;;;;;36.00;32.00;;;;;5.91;100.00;103418.84;5133232;27;45214;-85
2022/01/22 10:08:28;;;;;;;;;40.67;35.67;;;;;5.93;100.00;103428.53;5113913;27;44846;-87
2022/01/22 10:10:55;;;;;;;;;37.00;30.00;;;;;5.89;100.00;103426.75;5121813;27;44814;-85
2022/01/22 10:13:42;;;;;;;;;48.33;38.00;;;;;5.95;100.00;103427.63;5119349;27;45513;-82
2022/01/22 10:16:10;;;;;;;;;36.67;32.67;;;;;5.98;100.00;103427.63;5119498;27;45450;-82
2022/01/22 10:18:36;;;;;;;;;45.33;37.67;;;;;6.05;100.00;103432.03;5118452;27;45321;-83
2022/01/22 10:21:07;;;;;;;;;39.67;33.33;;;;;6.07;100.00;103433.75;5120283;27;44884;-83
2022/01/22 10:23:38;;;;;;;;;30.67;30.67;;;;;6.11;100.00;103432.84;5104236;27;44772;-82
2022/01/22 10:26:05;;;;;;;;;36.67;30.33;;;;;6.06;100.00;103439.91;5122756;27;45341;-84
2022/01/22 10:28:39;;;;;;;;;38.00;34.67;;;;;6.04;100.00;103443.44;5120912;27;44826;-83
2022/01/22 10:31:09;;;;;;;;;41.67;36.67;;;;;5.98;100.00;103440.84;5122907;27;45380;-82
2022/01/22 10:33:36;;;;;;;;;31.33;25.67;;;;;5.96;100.00;103442.63;5123113;27;45199;-84
2022/01/22 10:36:17;;;;;;;;;43.33;35.33;;;;;5.86;100.00;103437.34;5123637;27;45203;-85
2022/01/22 10:38:44;;;;;;;;;41.67;36.00;;;;;5.91;100.00;103448.78;5124981;27;45166;-83
2022/01/22 10:41:11;;;;;;;;;36.67;30.67;;;;;5.93;100.00;103454.91;5125697;27;45369;-84
2022/01/22 10:43:42;;;;;;;;;35.33;33.67;;;;;5.95;100.00;103443.47;5126259;27;44766;-84
2022/01/22 10:49:04;;;;;;;;;35.33;33.67;;;;;6.14;100.00;103442.50;5131043;27;45411;-84
2022/01/22 10:51:31;;;;;;;;;23.33;20.33;;;;;6.11;100.00;103437.25;5123810;27;45172;-84
2022/01/22 10:54:00;;;;;;;;;35.00;32.67;;;;;6.07;100.00;103435.50;5123373;27;44818;-84
2022/01/22 10:56:30;;;;;;;;;30.33;23.67;;;;;6.08;100.00;103427.56;5122608;27;45250;-84
2022/01/22 10:59:07;;;;;;;;;29.00;23.33;;;;;6.15;100.00;103428.44;5120579;27;45402;-84
2022/01/22 11:01:55;;;;;;;;;45.67;34.00;;;;;6.27;100.00;103432.78;5120638;27;45317;-83
2022/01/22 11:04:22;;;;;;;;;36.67;29.67;;;;;6.35;100.00;103423.94;5120155;27;45298;-85
2022/01/22 11:06:47;;;;;;;;;27.67;27.00;;;;;6.49;100.00;103423.84;5119478;27;46117;-84
2022/01/22 11:09:13;;;;;;;;;45.00;36.67;;;;;6.57;100.00;103410.56;5104358;27;45212;-83
2022/01/22 11:11:41;;;;;;;;;42.67;33.00;;;;;6.61;100.00;103410.53;5098645;27;45489;-84
2022/01/22 11:14:08;;;;;;;;;43.67;33.33;;;;;6.66;100.00;103416.66;5075305;27;45574;-83
2022/01/22 11:16:36;;;;;;;;;35.67;28.00;;;;;6.61;100.00;103418.47;5119232;27;46433;-84
2022/01/22 11:19:02;;;;;;;;;31.00;29.67;;;;;6.60;100.00;103418.47;5120253;27;44783;-84
2022/01/22 11:21:30;;;;;;;;;36.67;29.67;;;;;6.50;100.00;103417.66;5102165;27;45448;-84
2022/01/22 11:23:55;;;;;;;;;39.00;34.33;;;;;6.28;100.00;103418.69;5106514;27;45603;-84
2022/01/22 11:26:21;;;;;;;;;35.00;29.33;;;;;6.27;100.00;103417.81;5105824;27;45522;-85
2022/01/22 11:28:52;;;;;;;;;45.67;34.00;;;;;6.36;100.00;103417.75;5105165;27;44776;-84
2022/01/22 11:31:20;;;;;;;;;36.33;32.33;;;;;6.44;100.00;103409.78;5105154;27;45443;-84
2022/01/22 11:33:48;;;;;;;;;37.33;31.00;;;;;6.51;100.00;103408.84;5100193;27;45577;-84
2022/01/22 11:36:31;;;;;;;;;39.33;33.67;;;;;6.64;100.00;103407.00;5098222;27;45330;-84
2022/01/22 11:38:59;;;;;;;;;44.00;35.33;;;;;6.75;100.00;103407.78;5096864;27;44911;-83
2022/01/22 11:41:26;;;;;;;;;38.67;32.00;;;;;6.77;100.00;103403.41;5098649;27;45437;-84
2022/01/22 11:46:51;;;;;;;;;43.67;37.33;;;;;6.77;100.00;103398.09;5111195;27;45049;-83
2022/01/22 11:49:26;;;;;;;;;34.33;28.67;;;;;6.67;100.00;103402.59;5098222;27;45482;-84
2022/01/22 11:52:14;;;;;;;;;35.00;30.33;;;;;6.67;100.00;103401.69;5098898;27;45299;-83
2022/01/22 11:55:01;;;;;;;;;33.00;31.33;;;;;6.76;100.00;103393.69;5096814;27;45434;-85
2022/01/22 11:57:32;;;;;;;;;37.33;31.00;;;;;6.64;100.00;103393.81;5082036;27;46804;-84
2022/01/22 12:00:22;;;;;;;;;31.67;28.67;;;;;6.73;100.00;103393.72;5102920;27;44832;-83
2022/01/22 12:03:09;;;;;;;;;38.33;33.00;;;;;6.79;100.00;103388.38;5084189;27;45334;-83
2022/01/22 12:05:52;;;;;;;;;31.33;28.33;;;;;6.84;100.00;103397.16;5094105;27;44701;-83
2022/01/22 12:08:18;;;;;;;;;35.33;31.00;;;;;6.83;100.00;103389.25;5100307;27;45251;-83
2022/01/22 12:16:39;;;;;;;;;44.33;36.33;;;;;6.99;100.00;103382.06;5041280;28;44830;-83
2022/01/22 12:19:26;;;;;;;;;38.00;32.67;;;;;6.89;100.00;103378.63;5025643;28;45031;-84
2022/01/22 12:21:51;;;;;;;;;41.00;34.33;;;;;6.82;100.00;103380.44;5034218;28;45285;-84
2022/01/22 12:24:30;;;;;;;;;34.67;32.00;;;;;6.72;100.00;103381.41;5033743;28;44885;-83
2022/01/22 12:27:00;;;;;;;;;37.00;35.67;;;;;6.66;100.00;103379.69;5034765;28;44870;-84
2022/01/22 12:29:32;;;;;;;;;47.00;34.33;;;;;6.86;100.00;103371.56;5033532;28;45336;-83
2022/01/22 12:32:16;;;;;;;;;51.00;36.00;;;;;6.93;100.00;103369.78;5034393;28;44977;-83
2022/01/22 12:34:56;;;;;;;;;42.33;35.33;;;;;7.06;100.00;103368.78;5028892;28;44815;-83
2022/01/22 12:37:22;;;;;;;;;40.67;33.33;;;;;7.26;100.00;103360.63;5035001;28;44806;-85
2022/01/22 12:39:51;;;;;;;;;53.33;40.00;;;;;7.41;100.00;103355.16;5033735;28;45431;-84
2022/01/22 12:42:30;;;;;;;;;58.00;47.33;;;;;7.47;100.00;103352.44;5032851;28;45393;-84
2022/01/22 12:45:02;;;;;;;;;50.00;35.33;;;;;7.42;100.00;103353.41;5033180;28;44720;-83
2022/01/22 12:47:28;;;;;;;;;39.33;31.33;;;;;7.46;100.00;103355.13;5033798;28;44957;-83
2022/01/22 12:50:03;;;;;;;;;39.33;33.00;;;;;7.48;100.00;103343.59;5064293;27;45442;-84
2022/01/22 12:52:29;;;;;;;;;31.00;26.67;;;;;7.42;100.00;103342.81;5117633;27;45482;-85
2022/01/22 12:54:58;;;;;;;;;36.33;33.00;;;;;7.27;100.00;103337.72;5118578;27;45427;-84
2022/01/22 12:57:25;;;;;;;;;42.33;35.00;;;;;7.24;100.00;103337.72;5119103;27;45283;-84
2022/01/22 13:00:14;;;;;;;;;31.67;27.00;;;;;7.29;100.00;103342.06;5123984;27;45171;-85
2022/01/22 13:02:42;;;;;;;;;43.33;36.00;;;;;7.25;100.00;103340.34;5125793;27;45441;-84
2022/01/22 13:05:10;;;;;;;;;40.33;34.67;;;;;7.22;100.00;103337.75;5101745;27;45253;-85